KAKH

Gastonia Municipal Airport

Gastonia, North Carolina, USA
METAR KAKH 210654Z AUTO 00000KT 1 1/2SM BR CLR 19/18 A3012 RMK AO2 SLP192 T01890183
Observed Flight Rules
May-21 @ 06:54 UTC (25 minutes ago) Instrument Flight Rules
Visibility Clouds Conditions
1 1/2 miles
  • Clear skies
  • Mist
Temperatures Readings
Current 19°C / 66°F
Dewpoint 18°C / 64°F
Humidity 94%
Altimeter 30.12" Hg
Pressure 1019.2 hPa
Elevation 243
METAR KAKH 210654Z AUTO 00000KT 1 1/2SM BR CLR 19/18 A3012 RMK AO2 SLP192 T01890183
Observed Flight Rules
May-21 @ 06:54 UTC
(25 minutes ago)
IFR
Clouds
  • Clear skies
Conditions
  • Mist
Temperature Dewpoint
19°C / 66°F 18°C / 64°F
Humidity Altimeter Pressure
94% 30.12" Hg 1019.2 hPa